createdAt,value
2022-09-25T00:00:47.534Z,1010.54
2022-09-25T00:01:47.501Z,1010.56
2022-09-25T00:02:47.491Z,1010.60
2022-09-25T00:03:47.440Z,1010.56
2022-09-25T00:04:47.417Z,1010.58
2022-09-25T00:05:47.425Z,1010.57
2022-09-25T00:06:47.378Z,1010.52
2022-09-25T00:07:47.375Z,1010.62
2022-09-25T00:08:47.371Z,1010.59
2022-09-25T00:09:47.361Z,1010.58
2022-09-25T00:10:47.360Z,1010.60
2022-09-25T00:11:47.343Z,1010.63
2022-09-25T00:12:47.335Z,1010.62
2022-09-25T00:13:47.316Z,1010.60
2022-09-25T00:14:47.302Z,1010.63
2022-09-25T00:15:47.264Z,1010.66
2022-09-25T00:16:47.316Z,1010.62
2022-09-25T00:17:47.241Z,1010.64
2022-09-25T00:18:47.233Z,1010.66
2022-09-25T00:19:47.228Z,1010.64
2022-09-25T00:20:47.196Z,1010.66
2022-09-25T00:21:47.230Z,1010.61
2022-09-25T00:22:47.192Z,1010.59
2022-09-25T00:23:47.167Z,1010.60
2022-09-25T00:24:47.160Z,1010.62
2022-09-25T00:25:47.143Z,1010.62
2022-09-25T00:26:47.129Z,1010.66
2022-09-25T00:27:47.126Z,1010.63
2022-09-25T00:28:47.113Z,1010.58
2022-09-25T00:29:47.089Z,1010.57
2022-09-25T00:30:47.093Z,1010.53
2022-09-25T00:31:47.050Z,1010.53
2022-09-25T00:32:47.058Z,1010.56
2022-09-25T00:33:47.025Z,1010.54
2022-09-25T00:34:47.014Z,1010.51
2022-09-25T00:35:46.993Z,1010.52
2022-09-25T00:36:46.985Z,1010.50
2022-09-25T00:37:47.009Z,1010.53
2022-09-25T00:38:46.964Z,1010.48
2022-09-25T00:39:46.946Z,1010.48
2022-09-25T00:40:47.015Z,1010.50
2022-09-25T00:41:46.924Z,1010.52
2022-09-25T00:42:46.933Z,1010.53
2022-09-25T00:43:46.905Z,1010.47
2022-09-25T00:44:46.883Z,1010.54
2022-09-25T00:45:46.967Z,1010.56
2022-09-25T00:46:46.867Z,1010.51
2022-09-25T00:47:46.830Z,1010.55
2022-09-25T00:48:46.833Z,1010.52
2022-09-25T00:49:47.064Z,1010.55
2022-09-25T00:50:46.817Z,1010.55
2022-09-25T00:51:46.801Z,1010.57
2022-09-25T00:52:46.763Z,1010.51
2022-09-25T00:53:46.784Z,1010.49
2022-09-25T00:54:46.756Z,1010.49
2022-09-25T00:55:46.742Z,1010.49
2022-09-25T00:56:46.906Z,1010.52
2022-09-25T00:57:46.714Z,1010.50
2022-09-25T00:58:46.712Z,1010.48
2022-09-25T00:59:46.696Z,1010.48
2022-09-25T01:00:46.701Z,1010.51
2022-09-25T01:01:46.769Z,1010.51
2022-09-25T01:02:46.718Z,1010.53
2022-09-25T01:03:46.634Z,1010.54
2022-09-25T01:04:46.636Z,1010.54
2022-09-25T01:05:46.639Z,1010.54
2022-09-25T01:06:46.581Z,1010.51
2022-09-25T01:07:46.573Z,1010.59
2022-09-25T01:08:46.582Z,1010.53
2022-09-25T01:09:46.573Z,1010.51
2022-09-25T01:10:46.548Z,1010.53
2022-09-25T01:11:46.536Z,1010.58
2022-09-25T01:12:46.509Z,1010.58
2022-09-25T01:13:46.510Z,1010.60
2022-09-25T01:14:46.479Z,1010.57
2022-09-25T01:15:46.468Z,1010.55
2022-09-25T01:16:46.525Z,1010.56
2022-09-25T01:17:46.473Z,1010.57
2022-09-25T01:18:46.454Z,1010.51
2022-09-25T01:19:46.433Z,1010.52
2022-09-25T01:20:46.417Z,1010.56
2022-09-25T01:21:46.387Z,1010.51
2022-09-25T01:22:46.372Z,1010.54
2022-09-25T01:23:46.395Z,1010.56
2022-09-25T01:24:46.339Z,1010.55
2022-09-25T01:25:46.353Z,1010.49
2022-09-25T01:26:46.331Z,1010.56
2022-09-25T01:27:46.323Z,1010.56
2022-09-25T01:28:46.316Z,1010.53
2022-09-25T01:29:46.280Z,1010.51
2022-09-25T01:30:46.306Z,1010.53
2022-09-25T01:31:46.249Z,1010.50
2022-09-25T01:32:46.273Z,1010.53
2022-09-25T01:33:46.310Z,1010.53
2022-09-25T01:34:46.222Z,1010.50
2022-09-25T01:35:46.199Z,1010.48
2022-09-25T01:36:46.178Z,1010.53
2022-09-25T01:37:46.180Z,1010.52
2022-09-25T01:38:46.202Z,1010.54
2022-09-25T01:39:46.170Z,1010.55
2022-09-25T01:40:46.288Z,1010.57
2022-09-25T01:41:46.140Z,1010.56
2022-09-25T01:42:46.121Z,1010.55
2022-09-25T01:43:46.282Z,1010.55
2022-09-25T01:44:46.172Z,1010.62
2022-09-25T01:45:46.168Z,1010.61
2022-09-25T01:46:46.071Z,1010.60
2022-09-25T01:47:46.049Z,1010.63
2022-09-25T01:48:46.052Z,1010.61
2022-09-25T01:49:46.050Z,1010.59
2022-09-25T01:50:46.030Z,1010.60
2022-09-25T01:51:46.057Z,1010.61
2022-09-25T01:52:46.010Z,1010.56
2022-09-25T01:53:47.939Z,1010.58
2022-09-25T01:54:46.117Z,1010.64
2022-09-25T01:55:45.956Z,1010.58
2022-09-25T01:56:45.939Z,1010.62
2022-09-25T01:57:45.932Z,1010.63
2022-09-25T01:58:45.925Z,1010.58
2022-09-25T01:59:45.885Z,1010.63
2022-09-25T02:00:45.888Z,1010.55
2022-09-25T02:01:45.921Z,1010.58
2022-09-25T02:02:45.866Z,1010.59
2022-09-25T02:03:45.862Z,1010.60
2022-09-25T02:04:45.823Z,1010.61
2022-09-25T02:05:45.818Z,1010.64
2022-09-25T02:06:45.785Z,1010.66
2022-09-25T02:07:45.773Z,1010.63
2022-09-25T02:08:45.809Z,1010.56
2022-09-25T02:09:45.795Z,1010.64
2022-09-25T02:10:45.744Z,1010.59
2022-09-25T02:11:45.737Z,1010.56
2022-09-25T02:12:45.715Z,1010.59
2022-09-25T02:13:45.714Z,1010.58
2022-09-25T02:14:45.685Z,1010.57
2022-09-25T02:15:45.680Z,1010.52
2022-09-25T02:16:45.692Z,1010.60
2022-09-25T02:17:45.658Z,1010.58
2022-09-25T02:18:45.639Z,1010.58
2022-09-25T02:19:45.666Z,1010.57
2022-09-25T02:20:45.614Z,1010.61
2022-09-25T02:21:45.598Z,1010.58
2022-09-25T02:22:45.574Z,1010.59
2022-09-25T02:23:45.585Z,1010.56
2022-09-25T02:24:45.603Z,1010.57
2022-09-25T02:25:45.587Z,1010.57
2022-09-25T02:26:45.537Z,1010.64
2022-09-25T02:27:45.514Z,1010.59
2022-09-25T02:28:45.516Z,1010.64
2022-09-25T02:29:45.503Z,1010.71
2022-09-25T02:30:45.551Z,1010.65
2022-09-25T02:31:46.476Z,1010.68
2022-09-25T02:32:45.478Z,1010.68
2022-09-25T02:33:45.444Z,1010.68
2022-09-25T02:34:45.454Z,1010.62
2022-09-25T02:35:45.470Z,1010.67
2022-09-25T02:36:45.405Z,1010.64
2022-09-25T02:37:45.396Z,1010.64
2022-09-25T02:38:45.375Z,1010.74
2022-09-25T02:39:45.395Z,1010.69
2022-09-25T02:40:45.398Z,1010.66
2022-09-25T02:41:45.339Z,1010.67
2022-09-25T02:42:45.353Z,1010.66
2022-09-25T02:43:45.317Z,1010.71
2022-09-25T02:44:45.316Z,1010.67
2022-09-25T02:45:45.403Z,1010.72
2022-09-25T02:46:45.304Z,1010.72
2022-09-25T02:47:45.279Z,1010.77
2022-09-25T02:48:45.231Z,1010.64
2022-09-25T02:49:45.232Z,1010.64
2022-09-25T02:50:45.220Z,1010.65
2022-09-25T02:51:45.254Z,1010.66
2022-09-25T02:52:45.182Z,1010.64
2022-09-25T02:53:45.171Z,1010.66
2022-09-25T02:54:45.168Z,1010.72
2022-09-25T02:55:45.159Z,1010.72
2022-09-25T02:56:45.145Z,1010.68
2022-09-25T02:57:45.145Z,1010.61
2022-09-25T02:58:45.113Z,1010.64
2022-09-25T02:59:45.100Z,1010.62
2022-09-25T03:00:45.102Z,1010.70
2022-09-25T03:01:45.082Z,1010.62
2022-09-25T03:02:51.377Z,1010.65
2022-09-25T03:03:46.080Z,1010.60
2022-09-25T03:04:45.023Z,1010.65
2022-09-25T03:05:45.033Z,1010.66
2022-09-25T03:06:45.019Z,1010.61
2022-09-25T03:07:44.989Z,1010.60
2022-09-25T03:08:44.996Z,1010.56
2022-09-25T03:09:44.978Z,1010.63
2022-09-25T03:10:44.972Z,1010.61
2022-09-25T03:11:44.952Z,1010.66
2022-09-25T03:12:44.966Z,1010.65
2022-09-25T03:13:44.921Z,1010.65
2022-09-25T03:14:44.902Z,1010.67
2022-09-25T03:15:44.905Z,1010.61
2022-09-25T03:16:44.960Z,1010.66
2022-09-25T03:17:44.917Z,1010.68
2022-09-25T03:18:44.853Z,1010.76
2022-09-25T03:19:44.841Z,1010.71
2022-09-25T03:20:44.824Z,1010.73
2022-09-25T03:21:44.802Z,1010.67
2022-09-25T03:22:44.840Z,1010.74
2022-09-25T03:23:45.127Z,1010.79
2022-09-25T03:24:44.771Z,1010.72
2022-09-25T03:25:49.695Z,1010.75
2022-09-25T03:26:45.752Z,1010.75
2022-09-25T03:27:44.757Z,1010.80
2022-09-25T03:28:44.729Z,1010.77
2022-09-25T03:29:44.710Z,1010.79
2022-09-25T03:30:44.766Z,1010.74
2022-09-25T03:31:44.686Z,1010.72
2022-09-25T03:32:44.668Z,1010.76
2022-09-25T03:33:44.728Z,1010.70
2022-09-25T03:34:44.639Z,1010.77
2022-09-25T03:35:44.647Z,1010.75
2022-09-25T03:36:44.619Z,1010.78
2022-09-25T03:37:44.598Z,1010.71
2022-09-25T03:38:44.590Z,1010.69
2022-09-25T03:39:44.565Z,1010.76
2022-09-25T03:40:44.614Z,1010.73
2022-09-25T03:41:51.637Z,1010.72
2022-09-25T03:42:44.522Z,1010.77
2022-09-25T03:43:44.532Z,1010.76
2022-09-25T03:44:46.216Z,1010.83
2022-09-25T03:45:44.586Z,1010.75
2022-09-25T03:46:44.490Z,1010.77
2022-09-25T03:47:44.483Z,1010.81
2022-09-25T03:48:44.466Z,1010.83
2022-09-25T03:49:44.442Z,1010.79
2022-09-25T03:50:44.435Z,1010.82
2022-09-25T03:51:44.425Z,1010.79
2022-09-25T03:52:44.393Z,1010.80
2022-09-25T03:53:44.385Z,1010.82
2022-09-25T03:54:44.381Z,1010.79
2022-09-25T03:55:44.351Z,1010.78
2022-09-25T03:56:44.377Z,1010.86
2022-09-25T03:57:44.334Z,1010.86
2022-09-25T03:58:44.325Z,1010.85
2022-09-25T03:59:44.336Z,1010.85
2022-09-25T04:00:44.304Z,1010.87
2022-09-25T04:01:44.321Z,1010.82
2022-09-25T04:02:44.310Z,1010.85
2022-09-25T04:03:44.256Z,1010.80
2022-09-25T04:04:44.237Z,1010.86
2022-09-25T04:05:44.223Z,1010.80
2022-09-25T04:06:44.234Z,1010.81
2022-09-25T04:07:44.191Z,1010.82
2022-09-25T04:08:44.187Z,1010.85
2022-09-25T04:09:44.177Z,1010.82
2022-09-25T04:10:44.169Z,1010.83
2022-09-25T04:11:44.150Z,1010.80
2022-09-25T04:12:44.155Z,1010.79
2022-09-25T04:13:44.139Z,1010.86
2022-09-25T04:14:44.106Z,1010.87
2022-09-25T04:15:44.103Z,1010.86
2022-09-25T04:16:44.145Z,1010.82
2022-09-25T04:17:44.060Z,1010.85
2022-09-25T04:18:44.070Z,1010.83
2022-09-25T04:19:44.028Z,1010.85
2022-09-25T04:20:44.028Z,1010.82
2022-09-25T04:21:44.030Z,1010.78
2022-09-25T04:22:44.027Z,1010.83
2022-09-25T04:23:43.992Z,1010.79
2022-09-25T04:24:43.968Z,1010.83
2022-09-25T04:25:43.980Z,1010.89
2022-09-25T04:26:43.981Z,1010.77
2022-09-25T04:27:43.928Z,1010.77
2022-09-25T04:28:43.941Z,1010.74
2022-09-25T04:29:43.921Z,1010.82
2022-09-25T04:30:43.889Z,1010.75
2022-09-25T04:31:43.949Z,1010.76
2022-09-25T04:32:43.876Z,1010.79
2022-09-25T04:33:43.870Z,1010.79
2022-09-25T04:34:43.862Z,1010.73
2022-09-25T04:35:43.835Z,1010.75
2022-09-25T04:36:43.818Z,1010.75
2022-09-25T04:37:43.818Z,1010.77
2022-09-25T04:38:43.811Z,1010.75
2022-09-25T04:39:43.798Z,1010.79
2022-09-25T04:40:43.888Z,1010.79
2022-09-25T04:41:43.760Z,1010.82
2022-09-25T04:42:43.765Z,1010.71
2022-09-25T04:43:43.744Z,1010.74
2022-09-25T04:44:43.708Z,1010.73
2022-09-25T04:45:43.771Z,1010.81
2022-09-25T04:46:43.756Z,1010.79
2022-09-25T04:47:43.676Z,1010.81
2022-09-25T04:48:43.657Z,1010.79
2022-09-25T04:49:43.662Z,1010.80
2022-09-25T04:50:43.636Z,1010.82
2022-09-25T04:51:43.616Z,1010.89
2022-09-25T04:52:43.629Z,1010.85
2022-09-25T04:53:43.584Z,1010.87
2022-09-25T04:54:43.599Z,1010.90
2022-09-25T04:55:43.555Z,1010.84
2022-09-25T04:56:43.555Z,1010.81
2022-09-25T04:57:58.274Z,1010.79
2022-09-25T04:58:44.545Z,1010.87
2022-09-25T04:59:43.541Z,1010.83
2022-09-25T05:00:43.507Z,1010.88
2022-09-25T05:01:43.715Z,1010.86
2022-09-25T05:02:43.620Z,1010.82
2022-09-25T05:03:43.504Z,1010.84
2022-09-25T05:04:43.466Z,1010.87
2022-09-25T05:05:43.435Z,1010.84
2022-09-25T05:06:43.439Z,1010.83
2022-09-25T05:07:43.424Z,1010.87
2022-09-25T05:08:43.396Z,1010.88
2022-09-25T05:09:43.394Z,1010.92
2022-09-25T05:10:43.373Z,1010.91
2022-09-25T05:11:43.352Z,1010.87
2022-09-25T05:12:43.352Z,1010.90
2022-09-25T05:13:43.346Z,1010.90
2022-09-25T05:14:43.314Z,1010.96
2022-09-25T05:15:43.458Z,1010.98
2022-09-25T05:16:43.417Z,1010.90
2022-09-25T05:17:43.315Z,1010.99
2022-09-25T05:18:43.262Z,1011.01
2022-09-25T05:19:43.254Z,1011.04
2022-09-25T05:20:43.240Z,1011.00
2022-09-25T05:21:43.234Z,1011.02
2022-09-25T05:22:43.255Z,1011.00
2022-09-25T05:23:43.193Z,1011.04
2022-09-25T05:24:43.181Z,1011.03
2022-09-25T05:25:43.185Z,1010.97
2022-09-25T05:26:43.157Z,1010.98
2022-09-25T05:27:43.165Z,1011.05
2022-09-25T05:28:43.145Z,1011.04
2022-09-25T05:29:43.144Z,1011.01
2022-09-25T05:30:43.100Z,1011.02
2022-09-25T05:31:43.154Z,1011.04
2022-09-25T05:32:43.107Z,1010.99
2022-09-25T05:33:43.074Z,1011.01
2022-09-25T05:34:43.048Z,1011.01
2022-09-25T05:35:43.041Z,1011.05
2022-09-25T05:36:43.036Z,1011.02
2022-09-25T05:37:43.034Z,1011.01
2022-09-25T05:38:43.003Z,1011.02
2022-09-25T05:39:42.992Z,1011.01
2022-09-25T05:40:43.135Z,1011.03
2022-09-25T05:41:42.973Z,1011.05
2022-09-25T05:42:42.993Z,1011.04
2022-09-25T05:43:42.945Z,1011.04
2022-09-25T05:44:42.933Z,1011.03
2022-09-25T05:45:42.939Z,1011.01
2022-09-25T05:46:42.931Z,1011.06
2022-09-25T05:47:42.922Z,1011.04
2022-09-25T05:48:42.872Z,1010.97
2022-09-25T05:49:42.862Z,1010.99
2022-09-25T05:50:42.865Z,1010.97
2022-09-25T05:51:42.838Z,1010.97
2022-09-25T05:52:42.833Z,1010.96
2022-09-25T05:53:42.815Z,1010.92
2022-09-25T05:54:42.803Z,1010.96
2022-09-25T05:55:42.851Z,1010.97
2022-09-25T05:56:42.872Z,1011.00
2022-09-25T05:57:42.760Z,1011.02
2022-09-25T05:58:42.760Z,1011.06
2022-09-25T05:59:42.732Z,1011.05
2022-09-25T06:00:42.724Z,1011.03
2022-09-25T06:01:42.787Z,1011.05
2022-09-25T06:02:42.855Z,1011.12
2022-09-25T06:03:42.682Z,1011.12
2022-09-25T06:04:42.681Z,1011.13
2022-09-25T06:05:42.652Z,1011.10
2022-09-25T06:06:42.627Z,1011.11
2022-09-25T06:07:42.643Z,1011.13
2022-09-25T06:08:42.620Z,1011.15
2022-09-25T06:09:42.586Z,1011.16
2022-09-25T06:10:42.585Z,1011.14
2022-09-25T06:11:42.567Z,1011.13
2022-09-25T06:12:42.567Z,1011.20
2022-09-25T06:13:42.543Z,1011.18
2022-09-25T06:14:42.541Z,1011.17
2022-09-25T06:15:42.582Z,1011.23
2022-09-25T06:16:42.506Z,1011.18
2022-09-25T06:17:42.507Z,1011.17
2022-09-25T06:18:42.474Z,1011.12
2022-09-25T06:19:42.465Z,1011.20
2022-09-25T06:20:42.455Z,1011.18
2022-09-25T06:21:42.452Z,1011.14
2022-09-25T06:22:42.426Z,1011.16
2022-09-25T06:23:42.437Z,1011.19
2022-09-25T06:24:42.408Z,1011.22
2022-09-25T06:25:42.376Z,1011.27
2022-09-25T06:26:42.366Z,1011.24
2022-09-25T06:27:42.386Z,1011.27
2022-09-25T06:28:42.356Z,1011.20
2022-09-25T06:29:42.348Z,1011.32
2022-09-25T06:30:42.325Z,1011.27
2022-09-25T06:31:42.342Z,1011.33
2022-09-25T06:32:42.304Z,1011.29
2022-09-25T06:33:42.299Z,1011.33
2022-09-25T06:34:42.277Z,1011.38
2022-09-25T06:35:42.265Z,1011.36
2022-09-25T06:36:42.259Z,1011.41
2022-09-25T06:37:42.236Z,1011.32
2022-09-25T06:38:42.215Z,1011.35
2022-09-25T06:39:42.205Z,1011.38
2022-09-25T06:40:42.225Z,1011.39
2022-09-25T06:41:42.185Z,1011.33
2022-09-25T06:42:42.198Z,1011.36
2022-09-25T06:43:42.163Z,1011.36
2022-09-25T06:44:42.157Z,1011.36
2022-09-25T06:45:42.163Z,1011.36
2022-09-25T06:46:42.177Z,1011.38
2022-09-25T06:47:42.101Z,1011.38
2022-09-25T06:48:42.095Z,1011.39
2022-09-25T06:49:42.080Z,1011.39
2022-09-25T06:50:42.051Z,1011.45
2022-09-25T06:51:42.039Z,1011.42
2022-09-25T06:52:42.052Z,1011.47
2022-09-25T06:53:42.037Z,1011.46
2022-09-25T06:54:44.347Z,1011.47
2022-09-25T06:55:41.992Z,1011.52
2022-09-25T06:56:42.002Z,1011.47
2022-09-25T06:57:41.978Z,1011.57
2022-09-25T06:58:41.973Z,1011.50
2022-09-25T06:59:41.952Z,1011.54
2022-09-25T07:00:41.930Z,1011.52
2022-09-25T07:01:41.958Z,1011.52
2022-09-25T07:02:41.959Z,1011.52
2022-09-25T07:03:41.919Z,1011.52
2022-09-25T07:04:41.870Z,1011.47
2022-09-25T07:05:41.869Z,1011.52
2022-09-25T07:06:41.850Z,1011.44
2022-09-25T07:07:41.924Z,1011.51
2022-09-25T07:08:41.834Z,1011.49
2022-09-25T07:09:41.822Z,1011.51
2022-09-25T07:10:45.654Z,1011.51
2022-09-25T07:11:41.780Z,1011.50
2022-09-25T07:12:41.786Z,1011.52
2022-09-25T07:13:41.775Z,1011.53
2022-09-25T07:14:41.755Z,1011.56
2022-09-25T07:15:41.828Z,1011.57
2022-09-25T07:16:41.720Z,1011.55
2022-09-25T07:17:41.733Z,1011.58
2022-09-25T07:18:41.702Z,1011.57
2022-09-25T07:19:41.667Z,1011.58
2022-09-25T07:20:41.667Z,1011.61
2022-09-25T07:21:41.646Z,1011.61
2022-09-25T07:22:41.659Z,1011.58
2022-09-25T07:23:41.642Z,1011.60
2022-09-25T07:24:41.629Z,1011.62
2022-09-25T07:25:41.596Z,1011.61
2022-09-25T07:26:43.374Z,1011.58
2022-09-25T07:27:41.591Z,1011.63
2022-09-25T07:28:41.566Z,1011.61
2022-09-25T07:29:41.560Z,1011.60
2022-09-25T07:30:41.554Z,1011.64
2022-09-25T07:31:41.580Z,1011.61
2022-09-25T07:32:41.518Z,1011.62
2022-09-25T07:33:41.502Z,1011.60
2022-09-25T07:34:41.491Z,1011.62
2022-09-25T07:35:41.482Z,1011.60
2022-09-25T07:36:41.467Z,1011.58
2022-09-25T07:37:41.469Z,1011.61
2022-09-25T07:38:41.440Z,1011.56
2022-09-25T07:39:41.415Z,1011.58
2022-09-25T07:40:41.457Z,1011.56
2022-09-25T07:41:41.401Z,1011.53
2022-09-25T07:42:41.387Z,1011.59
2022-09-25T07:43:41.355Z,1011.60
2022-09-25T07:44:46.045Z,1011.60
2022-09-25T07:45:42.346Z,1011.58
2022-09-25T07:46:41.425Z,1011.56
2022-09-25T07:47:41.322Z,1011.57
2022-09-25T07:48:41.315Z,1011.61
2022-09-25T07:49:41.312Z,1011.54
2022-09-25T07:50:41.287Z,1011.52
2022-09-25T07:51:42.208Z,1011.55
2022-09-25T07:52:41.257Z,1011.53
2022-09-25T07:53:41.267Z,1011.53
2022-09-25T07:54:41.223Z,1011.57
2022-09-25T07:55:41.236Z,1011.51
2022-09-25T07:56:41.194Z,1011.52
2022-09-25T07:57:41.194Z,1011.54
2022-09-25T07:58:41.166Z,1011.51
2022-09-25T07:59:41.155Z,1011.56
2022-09-25T08:00:41.137Z,1011.56
2022-09-25T08:01:44.211Z,1011.54
2022-09-25T08:02:42.199Z,1011.58
2022-09-25T08:03:41.112Z,1011.54
2022-09-25T08:04:41.108Z,1011.53
2022-09-25T08:05:41.092Z,1011.59
2022-09-25T08:06:41.065Z,1011.65
2022-09-25T08:07:41.062Z,1011.56
2022-09-25T08:08:41.045Z,1011.61
2022-09-25T08:09:41.033Z,1011.62
2022-09-25T08:10:41.045Z,1011.57
2022-09-25T08:11:41.017Z,1011.59
2022-09-25T08:12:41.002Z,1011.60
2022-09-25T08:13:41.005Z,1011.56
2022-09-25T08:14:40.972Z,1011.56
2022-09-25T08:15:41.031Z,1011.60
2022-09-25T08:16:40.955Z,1011.60
2022-09-25T08:17:40.955Z,1011.62
2022-09-25T08:18:40.917Z,1011.65
2022-09-25T08:19:40.905Z,1011.63
2022-09-25T08:20:40.881Z,1011.67
2022-09-25T08:21:40.887Z,1011.55
2022-09-25T08:22:40.884Z,1011.64
2022-09-25T08:23:45.292Z,1011.62
2022-09-25T08:24:41.844Z,1011.62
2022-09-25T08:25:40.837Z,1011.61
2022-09-25T08:26:40.815Z,1011.63
2022-09-25T08:27:40.815Z,1011.60
2022-09-25T08:28:40.819Z,1011.66
2022-09-25T08:29:40.771Z,1011.68
2022-09-25T08:30:40.805Z,1011.68
2022-09-25T08:31:40.851Z,1011.63
2022-09-25T08:32:40.766Z,1011.54
2022-09-25T08:33:40.717Z,1011.55
2022-09-25T08:34:41.802Z,1011.63
2022-09-25T08:35:40.689Z,1011.57
2022-09-25T08:36:40.670Z,1011.59
2022-09-25T08:37:40.684Z,1011.56
2022-09-25T08:38:40.657Z,1011.58
2022-09-25T08:39:40.629Z,1011.58
2022-09-25T08:40:45.748Z,1011.61
2022-09-25T08:41:41.636Z,1011.62
2022-09-25T08:42:40.621Z,1011.51
2022-09-25T08:43:40.594Z,1011.60
2022-09-25T08:44:46.030Z,1011.63
2022-09-25T08:45:41.563Z,1011.63
2022-09-25T08:46:40.637Z,1011.62
2022-09-25T08:47:40.550Z,1011.59
2022-09-25T08:48:40.532Z,1011.65
2022-09-25T08:49:40.505Z,1011.66
2022-09-25T08:50:40.516Z,1011.57
2022-09-25T08:51:40.479Z,1011.63
2022-09-25T08:52:40.482Z,1011.56
2022-09-25T08:53:40.477Z,1011.68
2022-09-25T08:54:43.413Z,1011.57
2022-09-25T08:55:40.439Z,1011.62
2022-09-25T08:56:40.424Z,1011.62
2022-09-25T08:57:40.408Z,1011.63
2022-09-25T08:58:40.375Z,1011.61
2022-09-25T08:59:40.380Z,1011.61
2022-09-25T09:00:40.379Z,1011.61
2022-09-25T09:01:40.401Z,1011.61
2022-09-25T09:02:40.383Z,1011.62
2022-09-25T09:03:40.517Z,1011.63
2022-09-25T09:04:40.312Z,1011.60
2022-09-25T09:05:40.299Z,1011.63
2022-09-25T09:06:40.299Z,1011.64
2022-09-25T09:07:40.298Z,1011.57
2022-09-25T09:08:40.246Z,1011.62
2022-09-25T09:09:40.246Z,1011.62
2022-09-25T09:10:40.245Z,1011.67
2022-09-25T09:11:40.207Z,1011.62
2022-09-25T09:12:40.217Z,1011.64
2022-09-25T09:13:40.201Z,1011.66
2022-09-25T09:14:40.180Z,1011.61
2022-09-25T09:15:40.195Z,1011.60
2022-09-25T09:16:40.159Z,1011.62
2022-09-25T09:17:40.158Z,1011.60
2022-09-25T09:18:40.158Z,1011.64
2022-09-25T09:19:40.119Z,1011.71
2022-09-25T09:20:40.099Z,1011.69
2022-09-25T09:21:40.097Z,1011.66
2022-09-25T09:22:40.083Z,1011.68
2022-09-25T09:23:40.067Z,1011.63
2022-09-25T09:24:40.036Z,1011.65
2022-09-25T09:25:40.056Z,1011.68
2022-09-25T09:26:40.005Z,1011.57
2022-09-25T09:27:40.024Z,1011.70
2022-09-25T09:28:39.997Z,1011.69
2022-09-25T09:29:39.974Z,1011.59
2022-09-25T09:30:39.998Z,1011.57
2022-09-25T09:31:39.973Z,1011.51
2022-09-25T09:32:39.945Z,1011.62
2022-09-25T09:33:39.934Z,1011.62
2022-09-25T09:35:04.676Z,1011.57
2022-09-25T09:35:40.914Z,1011.61
2022-09-25T09:36:39.897Z,1011.58
2022-09-25T09:37:39.903Z,1011.56
2022-09-25T09:38:39.853Z,1011.56
2022-09-25T09:39:39.864Z,1011.56
2022-09-25T09:40:39.861Z,1011.59
2022-09-25T09:41:39.814Z,1011.59
2022-09-25T09:42:46.885Z,1011.64
2022-09-25T09:43:39.796Z,1011.61
2022-09-25T09:44:39.772Z,1011.60
2022-09-25T09:45:43.467Z,1011.56
2022-09-25T09:46:39.794Z,1011.57
2022-09-25T09:47:39.745Z,1011.55
2022-09-25T09:48:39.713Z,1011.56
2022-09-25T09:49:39.733Z,1011.52
2022-09-25T09:50:42.914Z,1011.54
2022-09-25T09:51:39.694Z,1011.46
2022-09-25T09:52:39.673Z,1011.52
2022-09-25T09:53:39.665Z,1011.44
2022-09-25T09:54:39.654Z,1011.45
2022-09-25T09:55:39.625Z,1011.46
2022-09-25T09:56:39.627Z,1011.44
2022-09-25T09:57:39.613Z,1011.45
2022-09-25T09:58:39.613Z,1011.43
2022-09-25T09:59:39.586Z,1011.48
2022-09-25T10:00:39.567Z,1011.46
2022-09-25T10:01:42.116Z,1011.44
2022-09-25T10:02:39.627Z,1011.45
2022-09-25T10:03:39.535Z,1011.38
2022-09-25T10:04:39.502Z,1011.41
2022-09-25T10:05:39.515Z,1011.48
2022-09-25T10:06:39.482Z,1011.40
2022-09-25T10:07:39.501Z,1011.43
2022-09-25T10:08:39.450Z,1011.41
2022-09-25T10:09:39.463Z,1011.44
2022-09-25T10:10:39.424Z,1011.34
2022-09-25T10:11:39.426Z,1011.37
2022-09-25T10:12:39.411Z,1011.35
2022-09-25T10:13:39.407Z,1011.33
2022-09-25T10:14:39.382Z,1011.34
2022-09-25T10:15:39.417Z,1011.34
2022-09-25T10:16:39.343Z,1011.29
2022-09-25T10:17:39.351Z,1011.26
2022-09-25T10:18:39.344Z,1011.24
2022-09-25T10:19:39.323Z,1011.30
2022-09-25T10:20:40.289Z,1011.32
2022-09-25T10:21:39.293Z,1011.31
2022-09-25T10:22:39.295Z,1011.29
2022-09-25T10:23:39.330Z,1011.29
2022-09-25T10:24:39.254Z,1011.33
2022-09-25T10:25:39.243Z,1011.35
2022-09-25T10:26:39.222Z,1011.36
2022-09-25T10:27:39.235Z,1011.37
2022-09-25T10:28:39.189Z,1011.34
2022-09-25T10:29:39.193Z,1011.38
2022-09-25T10:30:39.206Z,1011.36
2022-09-25T10:31:39.159Z,1011.38
2022-09-25T10:32:39.162Z,1011.41
2022-09-25T10:33:39.130Z,1011.35
2022-09-25T10:34:39.110Z,1011.43
2022-09-25T10:35:39.132Z,1011.38
2022-09-25T10:36:39.098Z,1011.36
2022-09-25T10:37:39.101Z,1011.35
2022-09-25T10:38:39.072Z,1011.33
2022-09-25T10:39:44.544Z,1011.29
2022-09-25T10:40:40.091Z,1011.35
2022-09-25T10:41:39.018Z,1011.31
2022-09-25T10:42:39.039Z,1011.27
2022-09-25T10:43:39.022Z,1011.23
2022-09-25T10:44:38.986Z,1011.30
2022-09-25T10:45:39.010Z,1011.32
2022-09-25T10:46:38.983Z,1011.27
2022-09-25T10:47:38.959Z,1011.22
2022-09-25T10:48:38.928Z,1011.26
2022-09-25T10:49:38.931Z,1011.26
2022-09-25T10:50:38.921Z,1011.22
2022-09-25T10:51:38.924Z,1011.29
2022-09-25T10:52:38.886Z,1011.27
2022-09-25T10:53:38.869Z,1011.23
2022-09-25T10:54:44.533Z,1011.24
2022-09-25T10:55:39.851Z,1011.26
2022-09-25T10:56:38.843Z,1011.29
2022-09-25T10:57:38.837Z,1011.30
2022-09-25T10:58:38.810Z,1011.24
2022-09-25T10:59:38.787Z,1011.27
2022-09-25T11:00:38.782Z,1011.24
2022-09-25T11:01:38.981Z,1011.24
2022-09-25T11:02:38.818Z,1011.20
2022-09-25T11:03:38.745Z,1011.26
2022-09-25T11:04:38.721Z,1011.29
2022-09-25T11:05:38.722Z,1011.29
2022-09-25T11:06:38.700Z,1011.22
2022-09-25T11:07:38.693Z,1011.20
2022-09-25T11:08:38.689Z,1011.23
2022-09-25T11:09:38.688Z,1011.22
2022-09-25T11:10:38.651Z,1011.20
2022-09-25T11:11:38.628Z,1011.22
2022-09-25T11:12:38.625Z,1011.09
2022-09-25T11:13:38.609Z,1011.28
2022-09-25T11:14:38.585Z,1011.18
2022-09-25T11:15:38.590Z,1011.18
2022-09-25T11:16:38.600Z,1011.20
2022-09-25T11:17:38.592Z,1011.18
2022-09-25T11:18:38.549Z,1011.19
2022-09-25T11:19:38.536Z,1011.22
2022-09-25T11:20:38.527Z,1011.22
2022-09-25T11:21:38.504Z,1011.17
2022-09-25T11:22:38.509Z,1011.21
2022-09-25T11:23:38.479Z,1011.16
2022-09-25T11:24:38.495Z,1011.21
2022-09-25T11:25:38.443Z,1011.13
2022-09-25T11:26:38.433Z,1011.17
2022-09-25T11:27:38.457Z,1011.17
2022-09-25T11:28:38.403Z,1011.19
2022-09-25T11:29:38.415Z,1011.18
2022-09-25T11:30:38.435Z,1011.16
2022-09-25T11:31:38.372Z,1011.17
2022-09-25T11:32:38.367Z,1011.12
2022-09-25T11:33:38.344Z,1011.11
2022-09-25T11:34:38.332Z,1011.08
2022-09-25T11:35:38.335Z,1011.04
2022-09-25T11:36:38.297Z,1011.05
2022-09-25T11:37:38.307Z,1011.07
2022-09-25T11:38:38.287Z,1011.09
2022-09-25T11:39:38.264Z,1011.03
2022-09-25T11:40:38.376Z,1011.07
2022-09-25T11:41:38.253Z,1011.08
2022-09-25T11:42:38.247Z,1011.09
2022-09-25T11:43:38.214Z,1011.09
2022-09-25T11:44:38.200Z,1011.12
2022-09-25T11:45:38.212Z,1011.10
2022-09-25T11:46:38.162Z,1011.14
2022-09-25T11:47:38.186Z,1011.07
2022-09-25T11:48:38.155Z,1011.02
2022-09-25T11:49:38.146Z,1011.06
2022-09-25T11:50:38.111Z,1011.07
2022-09-25T11:51:38.121Z,1011.02
2022-09-25T11:52:38.144Z,1011.02
2022-09-25T11:53:38.107Z,1010.97
2022-09-25T11:54:38.437Z,1010.94
2022-09-25T11:55:42.776Z,1011.03
2022-09-25T11:56:39.042Z,1011.00
2022-09-25T11:57:38.044Z,1010.98
2022-09-25T11:58:38.042Z,1010.98
2022-09-25T11:59:38.015Z,1010.98
2022-09-25T12:00:38.011Z,1010.99
2022-09-25T12:01:38.114Z,1010.95
2022-09-25T12:02:38.051Z,1010.98
2022-09-25T12:03:37.981Z,1010.98
2022-09-25T12:04:41.324Z,1011.03
2022-09-25T12:05:37.965Z,1010.99